sensor_id;sensor_type;location;lat;lon;timestamp;pressure;altitude;pressure_sealevel;temperature;humidity
12360;BME280;6244;51.460;7.090;2023-07-22T00:04:28;100463.94;;;15.11;62.32
12360;BME280;6244;51.460;7.090;2023-07-22T00:09:24;100469.34;;;15.09;62.39
12360;BME280;6244;51.460;7.090;2023-07-22T00:14:21;100469.97;;;14.89;63.59
12360;BME280;6244;51.460;7.090;2023-07-22T00:19:17;100461.13;;;15.25;62.03
12360;BME280;6244;51.460;7.090;2023-07-22T00:24:15;100453.78;;;15.41;61.96
12360;BME280;6244;51.460;7.090;2023-07-22T00:29:12;100457.38;;;15.40;62.11
12360;BME280;6244;51.460;7.090;2023-07-22T00:34:08;100460.97;;;15.39;62.32
12360;BME280;6244;51.460;7.090;2023-07-22T00:39:05;100454.44;;;15.32;62.14
12360;BME280;6244;51.460;7.090;2023-07-22T00:44:03;100451.50;;;15.48;61.81
12360;BME280;6244;51.460;7.090;2023-07-22T00:49:00;100446.22;;;15.48;62.11
12360;BME280;6244;51.460;7.090;2023-07-22T00:53:57;100442.69;;;15.36;62.01
12360;BME280;6244;51.460;7.090;2023-07-22T00:58:53;100438.88;;;15.16;62.16
12360;BME280;6244;51.460;7.090;2023-07-22T01:03:51;100428.69;;;15.23;62.21
12360;BME280;6244;51.460;7.090;2023-07-22T01:08:48;100425.91;;;14.89;63.60
12360;BME280;6244;51.460;7.090;2023-07-22T01:13:44;100423.69;;;14.83;63.57
12360;BME280;6244;51.460;7.090;2023-07-22T01:18:42;100425.94;;;14.77;64.43
12360;BME280;6244;51.460;7.090;2023-07-22T01:23:40;100430.41;;;14.87;64.01
12360;BME280;6244;51.460;7.090;2023-07-22T01:28:36;100421.53;;;15.01;62.78
12360;BME280;6244;51.460;7.090;2023-07-22T01:33:33;100416.06;;;15.15;63.10
12360;BME280;6244;51.460;7.090;2023-07-22T01:38:29;100419.84;;;15.35;61.97
12360;BME280;6244;51.460;7.090;2023-07-22T01:43:28;100413.16;;;15.42;62.08
12360;BME280;6244;51.460;7.090;2023-07-22T01:48:25;100409.44;;;15.45;62.16
12360;BME280;6244;51.460;7.090;2023-07-22T01:53:21;100414.28;;;15.51;62.27
12360;BME280;6244;51.460;7.090;2023-07-22T01:58:18;100406.53;;;15.72;61.34
12360;BME280;6244;51.460;7.090;2023-07-22T02:03:15;100407.28;;;15.50;62.12
12360;BME280;6244;51.460;7.090;2023-07-22T02:08:12;100412.03;;;15.34;62.69
12360;BME280;6244;51.460;7.090;2023-07-22T02:13:09;100408.78;;;15.06;63.39
12360;BME280;6244;51.460;7.090;2023-07-22T02:18:06;100412.72;;;15.01;63.75
12360;BME280;6244;51.460;7.090;2023-07-22T02:23:04;100410.06;;;15.24;63.93
12360;BME280;6244;51.460;7.090;2023-07-22T02:28:00;100402.56;;;15.66;62.54
12360;BME280;6244;51.460;7.090;2023-07-22T02:32:57;100391.28;;;15.75;61.71
12360;BME280;6244;51.460;7.090;2023-07-22T02:37:54;100406.50;;;15.37;62.67
12360;BME280;6244;51.460;7.090;2023-07-22T02:42:52;100406.66;;;15.46;62.63
12360;BME280;6244;51.460;7.090;2023-07-22T02:47:48;100408.50;;;15.22;63.83
12360;BME280;6244;51.460;7.090;2023-07-22T02:52:45;100411.63;;;15.16;63.83
12360;BME280;6244;51.460;7.090;2023-07-22T02:57:42;100412.00;;;14.98;64.80
12360;BME280;6244;51.460;7.090;2023-07-22T03:02:40;100414.56;;;14.87;64.59
12360;BME280;6244;51.460;7.090;2023-07-22T03:07:37;100411.25;;;14.73;65.05
12360;BME280;6244;51.460;7.090;2023-07-22T03:12:34;100419.53;;;14.92;64.24
12360;BME280;6244;51.460;7.090;2023-07-22T03:17:31;100424.66;;;15.06;63.76
12360;BME280;6244;51.460;7.090;2023-07-22T03:22:29;100415.59;;;15.21;62.77
12360;BME280;6244;51.460;7.090;2023-07-22T03:27:26;100417.44;;;15.08;62.73
12360;BME280;6244;51.460;7.090;2023-07-22T03:32:23;100425.66;;;15.16;62.64
12360;BME280;6244;51.460;7.090;2023-07-22T03:37:19;100423.88;;;15.17;62.50
12360;BME280;6244;51.460;7.090;2023-07-22T03:42:17;100415.19;;;15.39;62.30
12360;BME280;6244;51.460;7.090;2023-07-22T03:47:14;100419.94;;;15.57;60.89
12360;BME280;6244;51.460;7.090;2023-07-22T03:52:10;100426.81;;;15.01;62.13
12360;BME280;6244;51.460;7.090;2023-07-22T03:57:09;100420.31;;;14.81;63.30
12360;BME280;6244;51.460;7.090;2023-07-22T04:02:07;100422.00;;;14.82;63.13
12360;BME280;6244;51.460;7.090;2023-07-22T04:07:04;100419.44;;;14.93;63.42
12360;BME280;6244;51.460;7.090;2023-07-22T04:12:03;100427.84;;;14.98;62.07
12360;BME280;6244;51.460;7.090;2023-07-22T04:17:00;100433.06;;;14.87;62.10
12360;BME280;6244;51.460;7.090;2023-07-22T04:21:57;100431.53;;;14.72;61.87
12360;BME280;6244;51.460;7.090;2023-07-22T04:26:55;100430.25;;;14.78;62.76
12360;BME280;6244;51.460;7.090;2023-07-22T04:31:57;100436.63;;;14.37;63.37
12360;BME280;6244;51.460;7.090;2023-07-22T04:36:53;100436.03;;;14.33;63.74
12360;BME280;6244;51.460;7.090;2023-07-22T04:41:52;100428.53;;;14.53;63.02
12360;BME280;6244;51.460;7.090;2023-07-22T04:46:49;100434.44;;;14.56;63.07
12360;BME280;6244;51.460;7.090;2023-07-22T04:51:45;100440.66;;;14.43;64.08
12360;BME280;6244;51.460;7.090;2023-07-22T04:56:42;100431.19;;;14.53;63.61
12360;BME280;6244;51.460;7.090;2023-07-22T05:01:40;100436.63;;;14.62;62.29
12360;BME280;6244;51.460;7.090;2023-07-22T05:06:37;100433.38;;;14.59;63.12
12360;BME280;6244;51.460;7.090;2023-07-22T05:11:33;100442.06;;;14.85;62.44
12360;BME280;6244;51.460;7.090;2023-07-22T05:16:30;100440.16;;;15.11;61.48
12360;BME280;6244;51.460;7.090;2023-07-22T05:21:27;100446.53;;;15.08;61.88
12360;BME280;6244;51.460;7.090;2023-07-22T05:26:24;100436.06;;;15.07;61.56
12360;BME280;6244;51.460;7.090;2023-07-22T05:31:20;100437.38;;;15.01;61.65
12360;BME280;6244;51.460;7.090;2023-07-22T05:36:17;100451.31;;;15.03;61.97
12360;BME280;6244;51.460;7.090;2023-07-22T05:41:15;100452.69;;;14.96;62.13
12360;BME280;6244;51.460;7.090;2023-07-22T05:46:12;100453.66;;;14.95;62.43
12360;BME280;6244;51.460;7.090;2023-07-22T05:51:09;100447.66;;;14.93;62.05
12360;BME280;6244;51.460;7.090;2023-07-22T05:56:06;100455.81;;;14.90;62.34
12360;BME280;6244;51.460;7.090;2023-07-22T06:01:04;100458.50;;;15.01;62.32
12360;BME280;6244;51.460;7.090;2023-07-22T06:06:00;100461.19;;;15.12;62.51
12360;BME280;6244;51.460;7.090;2023-07-22T06:10:57;100451.09;;;15.06;62.35
12360;BME280;6244;51.460;7.090;2023-07-22T06:15:53;100450.13;;;15.07;61.89
12360;BME280;6244;51.460;7.090;2023-07-22T06:20:51;100457.75;;;15.23;61.66
12360;BME280;6244;51.460;7.090;2023-07-22T06:25:48;100452.28;;;15.37;62.35
12360;BME280;6244;51.460;7.090;2023-07-22T06:30:44;100442.31;;;15.30;62.18
12360;BME280;6244;51.460;7.090;2023-07-22T06:35:41;100452.66;;;15.33;62.28
12360;BME280;6244;51.460;7.090;2023-07-22T06:40:39;100452.47;;;15.47;62.83
12360;BME280;6244;51.460;7.090;2023-07-22T06:45:36;100450.66;;;15.71;61.62
12360;BME280;6244;51.460;7.090;2023-07-22T06:50:33;100449.25;;;15.78;60.65
12360;BME280;6244;51.460;7.090;2023-07-22T06:55:29;100442.19;;;16.01;61.59
12360;BME280;6244;51.460;7.090;2023-07-22T07:00:27;100441.97;;;16.15;61.16
12360;BME280;6244;51.460;7.090;2023-07-22T07:05:23;100436.31;;;16.42;59.75
12360;BME280;6244;51.460;7.090;2023-07-22T07:10:20;100436.66;;;16.60;59.78
12360;BME280;6244;51.460;7.090;2023-07-22T07:15:16;100433.88;;;16.84;58.87
12360;BME280;6244;51.460;7.090;2023-07-22T07:20:15;100436.31;;;16.76;57.93
12360;BME280;6244;51.460;7.090;2023-07-22T07:25:12;100427.63;;;16.74;59.09
12360;BME280;6244;51.460;7.090;2023-07-22T07:30:11;100433.38;;;17.01;57.89
12360;BME280;6244;51.460;7.090;2023-07-22T07:35:08;100447.78;;;17.09;57.77
12360;BME280;6244;51.460;7.090;2023-07-22T07:40:08;100444.09;;;17.32;56.83
12360;BME280;6244;51.460;7.090;2023-07-22T07:45:06;100437.66;;;17.46;56.56
12360;BME280;6244;51.460;7.090;2023-07-22T07:50:02;100447.78;;;17.73;56.51
12360;BME280;6244;51.460;7.090;2023-07-22T07:54:59;100447.91;;;18.13;54.63
12360;BME280;6244;51.460;7.090;2023-07-22T07:59:57;100444.59;;;18.20;54.11
12360;BME280;6244;51.460;7.090;2023-07-22T08:04:53;100458.13;;;18.17;54.63
12360;BME280;6244;51.460;7.090;2023-07-22T08:09:50;100451.34;;;18.25;53.63
12360;BME280;6244;51.460;7.090;2023-07-22T08:14:47;100453.03;;;18.35;52.75
12360;BME280;6244;51.460;7.090;2023-07-22T08:19:45;100455.66;;;19.06;51.14
12360;BME280;6244;51.460;7.090;2023-07-22T08:24:42;100447.41;;;19.19;50.15
12360;BME280;6244;51.460;7.090;2023-07-22T08:29:38;100453.00;;;19.93;47.63
12360;BME280;6244;51.460;7.090;2023-07-22T08:34:35;100440.91;;;20.08;47.00
12360;BME280;6244;51.460;7.090;2023-07-22T08:39:33;100443.88;;;20.05;49.15
12360;BME280;6244;51.460;7.090;2023-07-22T08:44:32;100449.38;;;20.50;46.84
12360;BME280;6244;51.460;7.090;2023-07-22T08:49:30;100438.66;;;20.60;46.24
12360;BME280;6244;51.460;7.090;2023-07-22T08:54:28;100438.84;;;21.39;44.41
12360;BME280;6244;51.460;7.090;2023-07-22T08:59:26;100429.91;;;21.66;43.42
12360;BME280;6244;51.460;7.090;2023-07-22T09:04:23;100440.13;;;20.45;45.02
12360;BME280;6244;51.460;7.090;2023-07-22T09:09:19;100438.69;;;21.23;42.42
12360;BME280;6244;51.460;7.090;2023-07-22T09:14:18;100426.97;;;22.21;41.14
12360;BME280;6244;51.460;7.090;2023-07-22T09:19:16;100433.06;;;21.88;42.03
12360;BME280;6244;51.460;7.090;2023-07-22T09:24:20;100442.66;;;20.46;45.11
12360;BME280;6244;51.460;7.090;2023-07-22T09:29:18;100436.69;;;20.25;45.17
12360;BME280;6244;51.460;7.090;2023-07-22T09:34:14;100442.06;;;20.52;46.01
12360;BME280;6244;51.460;7.090;2023-07-22T09:39:14;100439.72;;;20.30;44.76
12360;BME280;6244;51.460;7.090;2023-07-22T09:44:11;100434.75;;;20.55;44.66
12360;BME280;6244;51.460;7.090;2023-07-22T09:49:08;100433.63;;;21.02;43.05
12360;BME280;6244;51.460;7.090;2023-07-22T09:54:06;100431.66;;;22.02;41.36
12360;BME280;6244;51.460;7.090;2023-07-22T09:59:04;100418.91;;;22.13;41.30
12360;BME280;6244;51.460;7.090;2023-07-22T10:04:04;100427.75;;;21.70;41.00
12360;BME280;6244;51.460;7.090;2023-07-22T10:09:03;100429.50;;;22.31;41.95
12360;BME280;6244;51.460;7.090;2023-07-22T10:14:04;100430.81;;;23.11;39.47
12360;BME280;6244;51.460;7.090;2023-07-22T10:19:02;100426.19;;;22.79;39.32
12360;BME280;6244;51.460;7.090;2023-07-22T10:24:02;100427.25;;;22.87;39.40
12360;BME280;6244;51.460;7.090;2023-07-22T10:28:59;100423.31;;;21.79;40.86
12360;BME280;6244;51.460;7.090;2023-07-22T10:33:58;100413.03;;;22.10;41.18
12360;BME280;6244;51.460;7.090;2023-07-22T10:38:58;100415.28;;;22.31;39.23
12360;BME280;6244;51.460;7.090;2023-07-22T10:43:56;100418.38;;;21.92;41.00
12360;BME280;6244;51.460;7.090;2023-07-22T10:49:08;100402.84;;;22.47;39.15
12360;BME280;6244;51.460;7.090;2023-07-22T10:54:10;100383.28;;;23.87;37.51
12360;BME280;6244;51.460;7.090;2023-07-22T10:59:10;100381.00;;;24.23;36.09
12360;BME280;6244;51.460;7.090;2023-07-22T11:04:13;100382.69;;;24.16;36.18
12360;BME280;6244;51.460;7.090;2023-07-22T11:09:33;100371.63;;;23.63;36.93
12360;BME280;6244;51.460;7.090;2023-07-22T11:14:30;100367.53;;;22.94;38.02
12360;BME280;6244;51.460;7.090;2023-07-22T11:19:28;100365.91;;;23.18;37.10
12360;BME280;6244;51.460;7.090;2023-07-22T11:24:25;100369.91;;;23.05;38.16
12360;BME280;6244;51.460;7.090;2023-07-22T11:29:22;100354.53;;;23.64;37.71
12360;BME280;6244;51.460;7.090;2023-07-22T11:34:20;100355.13;;;23.91;34.66
12360;BME280;6244;51.460;7.090;2023-07-22T11:39:20;100354.22;;;23.35;36.42
12360;BME280;6244;51.460;7.090;2023-07-22T11:44:18;100348.09;;;23.90;37.08
12360;BME280;6244;51.460;7.090;2023-07-22T11:49:22;100356.66;;;24.72;34.40
12360;BME280;6244;51.460;7.090;2023-07-22T11:54:21;100337.25;;;24.30;35.93
12360;BME280;6244;51.460;7.090;2023-07-22T11:59:32;100339.63;;;23.46;36.59
12360;BME280;6244;51.460;7.090;2023-07-22T12:04:29;100334.13;;;24.11;36.12
12360;BME280;6244;51.460;7.090;2023-07-22T12:09:27;100327.84;;;23.87;36.50
12360;BME280;6244;51.460;7.090;2023-07-22T12:14:24;100318.34;;;24.24;35.25
12360;BME280;6244;51.460;7.090;2023-07-22T12:19:21;100332.19;;;22.66;37.54
12360;BME280;6244;51.460;7.090;2023-07-22T12:24:18;100321.28;;;22.35;39.50
12360;BME280;6244;51.460;7.090;2023-07-22T12:29:15;100322.44;;;22.41;38.29
12360;BME280;6244;51.460;7.090;2023-07-22T12:34:12;100307.47;;;22.72;37.28
12360;BME280;6244;51.460;7.090;2023-07-22T12:39:08;100316.22;;;22.99;37.30
12360;BME280;6244;51.460;7.090;2023-07-22T12:44:05;100306.91;;;22.44;38.09
12360;BME280;6244;51.460;7.090;2023-07-22T12:49:03;100313.22;;;23.02;36.95
12360;BME280;6244;51.460;7.090;2023-07-22T12:54:00;100309.97;;;22.82;37.16
12360;BME280;6244;51.460;7.090;2023-07-22T12:58:57;100297.16;;;23.10;37.66
12360;BME280;6244;51.460;7.090;2023-07-22T13:03:53;100295.16;;;23.12;37.25
12360;BME280;6244;51.460;7.090;2023-07-22T13:08:51;100300.00;;;23.25;37.69
12360;BME280;6244;51.460;7.090;2023-07-22T13:13:48;100298.63;;;22.72;37.11
12360;BME280;6244;51.460;7.090;2023-07-22T13:18:44;100291.25;;;22.82;36.40
12360;BME280;6244;51.460;7.090;2023-07-22T13:23:41;100285.09;;;22.90;36.13
12360;BME280;6244;51.460;7.090;2023-07-22T13:28:39;100271.84;;;22.64;38.43
12360;BME280;6244;51.460;7.090;2023-07-22T13:33:35;100262.22;;;22.95;38.00
12360;BME280;6244;51.460;7.090;2023-07-22T13:38:32;100267.88;;;22.92;37.04
12360;BME280;6244;51.460;7.090;2023-07-22T13:43:28;100263.53;;;23.07;36.25
12360;BME280;6244;51.460;7.090;2023-07-22T13:48:26;100280.75;;;23.05;36.97
12360;BME280;6244;51.460;7.090;2023-07-22T13:53:23;100264.38;;;23.08;36.94
12360;BME280;6244;51.460;7.090;2023-07-22T13:58:19;100266.22;;;22.83;36.00
12360;BME280;6244;51.460;7.090;2023-07-22T14:03:16;100248.81;;;23.03;35.64
12360;BME280;6244;51.460;7.090;2023-07-22T14:08:27;100245.09;;;22.80;36.01
12360;BME280;6244;51.460;7.090;2023-07-22T14:13:23;100240.13;;;22.93;34.71
12360;BME280;6244;51.460;7.090;2023-07-22T14:18:20;100230.56;;;22.74;35.52
12360;BME280;6244;51.460;7.090;2023-07-22T14:23:18;100240.59;;;23.05;34.98
12360;BME280;6244;51.460;7.090;2023-07-22T14:28:15;100232.34;;;23.39;33.94
12360;BME280;6244;51.460;7.090;2023-07-22T14:33:12;100221.56;;;23.00;33.96
12360;BME280;6244;51.460;7.090;2023-07-22T14:38:08;100209.84;;;22.60;34.53
12360;BME280;6244;51.460;7.090;2023-07-22T14:43:06;100227.22;;;23.05;35.36
12360;BME280;6244;51.460;7.090;2023-07-22T14:48:03;100209.50;;;22.55;33.67
12360;BME280;6244;51.460;7.090;2023-07-22T14:53:03;100218.03;;;22.67;35.51
12360;BME280;6244;51.460;7.090;2023-07-22T14:58:00;100218.69;;;22.77;35.54
12360;BME280;6244;51.460;7.090;2023-07-22T15:02:58;100209.34;;;22.89;35.42
12360;BME280;6244;51.460;7.090;2023-07-22T15:07:54;100208.16;;;22.75;35.07
12360;BME280;6244;51.460;7.090;2023-07-22T15:12:51;100205.00;;;22.72;35.27
12360;BME280;6244;51.460;7.090;2023-07-22T15:17:47;100198.47;;;22.58;35.29
12360;BME280;6244;51.460;7.090;2023-07-22T15:22:45;100196.13;;;22.63;34.88
12360;BME280;6244;51.460;7.090;2023-07-22T15:27:41;100190.59;;;22.81;35.77
12360;BME280;6244;51.460;7.090;2023-07-22T15:32:38;100184.03;;;23.24;35.01
12360;BME280;6244;51.460;7.090;2023-07-22T15:37:35;100196.41;;;23.33;35.16
12360;BME280;6244;51.460;7.090;2023-07-22T15:42:33;100192.19;;;23.39;35.23
12360;BME280;6244;51.460;7.090;2023-07-22T15:47:29;100198.25;;;23.25;36.33
12360;BME280;6244;51.460;7.090;2023-07-22T15:52:26;100184.09;;;22.67;36.08
12360;BME280;6244;51.460;7.090;2023-07-22T15:57:23;100192.28;;;22.49;36.77
12360;BME280;6244;51.460;7.090;2023-07-22T16:02:21;100188.59;;;22.67;36.98
12360;BME280;6244;51.460;7.090;2023-07-22T16:07:17;100189.41;;;22.26;36.79
12360;BME280;6244;51.460;7.090;2023-07-22T16:12:14;100190.25;;;22.27;36.96
12360;BME280;6244;51.460;7.090;2023-07-22T16:17:10;100172.56;;;22.50;36.77
12360;BME280;6244;51.460;7.090;2023-07-22T16:22:08;100186.09;;;22.41;36.97
12360;BME280;6244;51.460;7.090;2023-07-22T16:27:05;100182.06;;;22.28;37.52
12360;BME280;6244;51.460;7.090;2023-07-22T16:32:02;100192.09;;;22.26;37.62
12360;BME280;6244;51.460;7.090;2023-07-22T16:36:58;100194.13;;;21.82;37.42
12360;BME280;6244;51.460;7.090;2023-07-22T16:41:56;100189.22;;;21.69;37.70
12360;BME280;6244;51.460;7.090;2023-07-22T16:46:53;100195.78;;;21.75;37.96
12360;BME280;6244;51.460;7.090;2023-07-22T16:51:49;100189.94;;;21.80;38.31
12360;BME280;6244;51.460;7.090;2023-07-22T16:56:46;100185.31;;;21.90;38.55
12360;BME280;6244;51.460;7.090;2023-07-22T17:01:44;100180.47;;;21.85;37.28
12360;BME280;6244;51.460;7.090;2023-07-22T17:06:40;100167.56;;;21.81;37.96
12360;BME280;6244;51.460;7.090;2023-07-22T17:11:37;100177.88;;;21.59;37.70
12360;BME280;6244;51.460;7.090;2023-07-22T17:16:33;100176.53;;;21.63;38.51
12360;BME280;6244;51.460;7.090;2023-07-22T17:21:32;100167.31;;;21.58;38.57
12360;BME280;6244;51.460;7.090;2023-07-22T17:26:29;100168.59;;;21.37;38.74
12360;BME280;6244;51.460;7.090;2023-07-22T17:31:25;100156.41;;;21.35;39.47
12360;BME280;6244;51.460;7.090;2023-07-22T17:36:22;100159.75;;;21.37;39.78
12360;BME280;6244;51.460;7.090;2023-07-22T17:41:20;100157.75;;;21.39;39.59
12360;BME280;6244;51.460;7.090;2023-07-22T17:46:17;100168.59;;;21.37;40.12
12360;BME280;6244;51.460;7.090;2023-07-22T17:51:13;100161.84;;;21.25;40.19
12360;BME280;6244;51.460;7.090;2023-07-22T17:56:10;100159.44;;;21.14;40.53
12360;BME280;6244;51.460;7.090;2023-07-22T18:01:08;100159.44;;;20.88;41.13
12360;BME280;6244;51.460;7.090;2023-07-22T18:06:04;100158.44;;;20.89;41.37
12360;BME280;6244;51.460;7.090;2023-07-22T18:11:01;100157.78;;;20.95;41.56
12360;BME280;6244;51.460;7.090;2023-07-22T18:15:57;100158.28;;;20.91;41.60
12360;BME280;6244;51.460;7.090;2023-07-22T18:20:55;100149.09;;;20.85;42.04
12360;BME280;6244;51.460;7.090;2023-07-22T18:25:52;100155.25;;;20.86;41.91
12360;BME280;6244;51.460;7.090;2023-07-22T18:30:50;100162.50;;;20.75;41.49
12360;BME280;6244;51.460;7.090;2023-07-22T18:35:48;100161.16;;;20.71;42.02
12360;BME280;6244;51.460;7.090;2023-07-22T18:40:47;100171.44;;;20.66;42.21
12360;BME280;6244;51.460;7.090;2023-07-22T18:45:43;100159.09;;;20.65;41.33
12360;BME280;6244;51.460;7.090;2023-07-22T18:50:40;100165.75;;;20.61;41.03
12360;BME280;6244;51.460;7.090;2023-07-22T18:55:37;100169.16;;;20.53;41.15
12360;BME280;6244;51.460;7.090;2023-07-22T19:00:36;100172.31;;;20.49;41.32
12360;BME280;6244;51.460;7.090;2023-07-22T19:05:37;100166.81;;;20.50;40.85
12360;BME280;6244;51.460;7.090;2023-07-22T19:10:33;100169.25;;;20.44;40.85
12360;BME280;6244;51.460;7.090;2023-07-22T19:15:32;100160.34;;;20.35;41.37
12360;BME280;6244;51.460;7.090;2023-07-22T19:20:30;100160.47;;;20.34;41.95
12360;BME280;6244;51.460;7.090;2023-07-22T19:25:27;100161.44;;;20.33;41.34
12360;BME280;6244;51.460;7.090;2023-07-22T19:30:24;100174.03;;;20.22;42.25
12360;BME280;6244;51.460;7.090;2023-07-22T19:35:20;100172.50;;;20.20;42.34
12360;BME280;6244;51.460;7.090;2023-07-22T19:40:18;100175.47;;;20.17;41.70
12360;BME280;6244;51.460;7.090;2023-07-22T19:45:15;100184.25;;;20.09;42.68
12360;BME280;6244;51.460;7.090;2023-07-22T19:50:12;100180.78;;;19.99;42.94
12360;BME280;6244;51.460;7.090;2023-07-22T19:55:09;100183.06;;;19.94;43.75
12360;BME280;6244;51.460;7.090;2023-07-22T20:00:07;100185.38;;;19.79;44.87
12360;BME280;6244;51.460;7.090;2023-07-22T20:05:05;100187.56;;;19.66;45.49
12360;BME280;6244;51.460;7.090;2023-07-22T20:10:02;100187.56;;;19.66;46.68
12360;BME280;6244;51.460;7.090;2023-07-22T20:14:58;100189.19;;;19.40;47.36
12360;BME280;6244;51.460;7.090;2023-07-22T20:19:56;100194.38;;;19.41;48.91
12360;BME280;6244;51.460;7.090;2023-07-22T20:24:53;100187.69;;;19.37;49.69
12360;BME280;6244;51.460;7.090;2023-07-22T20:29:52;100192.59;;;19.69;48.76
12360;BME280;6244;51.460;7.090;2023-07-22T20:34:50;100197.25;;;19.57;50.15
12360;BME280;6244;51.460;7.090;2023-07-22T20:39:48;100199.22;;;19.18;51.64
12360;BME280;6244;51.460;7.090;2023-07-22T20:44:45;100199.84;;;18.93;52.93
12360;BME280;6244;51.460;7.090;2023-07-22T20:49:41;100200.31;;;19.25;54.73
12360;BME280;6244;51.460;7.090;2023-07-22T20:54:38;100196.44;;;19.10;56.49
12360;BME280;6244;51.460;7.090;2023-07-22T20:59:36;100191.16;;;19.00;57.23
12360;BME280;6244;51.460;7.090;2023-07-22T21:04:32;100189.34;;;18.91;58.78
12360;BME280;6244;51.460;7.090;2023-07-22T21:09:35;100190.31;;;18.90;58.57
12360;BME280;6244;51.460;7.090;2023-07-22T21:14:36;100181.72;;;19.16;58.96
12360;BME280;6244;51.460;7.090;2023-07-22T21:19:32;100186.75;;;19.19;58.73
12360;BME280;6244;51.460;7.090;2023-07-22T21:24:29;100188.72;;;19.17;60.68
12360;BME280;6244;51.460;7.090;2023-07-22T21:29:25;100186.69;;;18.91;63.02
12360;BME280;6244;51.460;7.090;2023-07-22T21:34:31;100179.16;;;18.67;64.46
12360;BME280;6244;51.460;7.090;2023-07-22T21:39:27;100176.63;;;18.56;65.95
12360;BME280;6244;51.460;7.090;2023-07-22T21:44:27;100162.78;;;18.72;64.65
12360;BME280;6244;51.460;7.090;2023-07-22T21:49:25;100159.13;;;18.83;64.51
12360;BME280;6244;51.460;7.090;2023-07-22T21:54:22;100155.63;;;18.82;64.42
12360;BME280;6244;51.460;7.090;2023-07-22T21:59:18;100163.44;;;19.03;63.74
12360;BME280;6244;51.460;7.090;2023-07-22T22:04:15;100158.22;;;19.11;63.66
12360;BME280;6244;51.460;7.090;2023-07-22T22:09:14;100160.31;;;19.07;63.92
12360;BME280;6244;51.460;7.090;2023-07-22T22:14:10;100153.56;;;19.23;63.20
12360;BME280;6244;51.460;7.090;2023-07-22T22:19:07;100155.94;;;19.26;62.90
12360;BME280;6244;51.460;7.090;2023-07-22T22:24:04;100151.84;;;19.31;61.74
12360;BME280;6244;51.460;7.090;2023-07-22T22:29:02;100153.44;;;19.24;60.70
12360;BME280;6244;51.460;7.090;2023-07-22T22:33:59;100150.00;;;18.95;60.12
12360;BME280;6244;51.460;7.090;2023-07-22T22:38:55;100156.22;;;18.57;61.55
12360;BME280;6244;51.460;7.090;2023-07-22T22:43:52;100138.19;;;18.51;63.14
12360;BME280;6244;51.460;7.090;2023-07-22T22:48:50;100129.22;;;18.23;64.97
12360;BME280;6244;51.460;7.090;2023-07-22T22:53:46;100120.03;;;18.07;65.93
12360;BME280;6244;51.460;7.090;2023-07-22T22:58:43;100121.84;;;18.26;67.31
12360;BME280;6244;51.460;7.090;2023-07-22T23:03:39;100119.44;;;18.33;66.10
12360;BME280;6244;51.460;7.090;2023-07-22T23:08:37;100119.47;;;18.13;66.53
12360;BME280;6244;51.460;7.090;2023-07-22T23:13:34;100110.09;;;18.29;66.39
12360;BME280;6244;51.460;7.090;2023-07-22T23:18:31;100113.72;;;18.37;66.91
12360;BME280;6244;51.460;7.090;2023-07-22T23:23:27;100108.28;;;18.19;66.97
12360;BME280;6244;51.460;7.090;2023-07-22T23:28:25;100105.06;;;18.06;68.30
12360;BME280;6244;51.460;7.090;2023-07-22T23:33:22;100106.47;;;17.41;69.36
12360;BME280;6244;51.460;7.090;2023-07-22T23:38:21;100101.16;;;16.29;74.21
12360;BME280;6244;51.460;7.090;2023-07-22T23:43:18;100094.09;;;15.86;78.50
12360;BME280;6244;51.460;7.090;2023-07-22T23:48:17;100089.59;;;15.98;82.54
12360;BME280;6244;51.460;7.090;2023-07-22T23:53:14;100083.53;;;15.75;82.68
12360;BME280;6244;51.460;7.090;2023-07-22T23:58:10;100079.75;;;16.21;82.63
